sensor_id;sensor_type;location;lat;lon;timestamp;pressure;altitude;pressure_sealevel;temperature;humidity
2214;BME280;1113;42.018;23.986;2022-07-23T00:01:53;93170.97;;;17.79;79.16
2214;BME280;1113;42.018;23.986;2022-07-23T00:04:20;93172.59;;;17.83;78.54
2214;BME280;1113;42.018;23.986;2022-07-23T00:06:47;93191.97;;;17.82;78.66
2214;BME280;1113;42.018;23.986;2022-07-23T00:09:15;93179.91;;;17.78;78.39
2214;BME280;1113;42.018;23.986;2022-07-23T00:11:42;93179.41;;;17.72;78.27
2214;BME280;1113;42.018;23.986;2022-07-23T00:14:09;93174.44;;;17.83;77.12
2214;BME280;1113;42.018;23.986;2022-07-23T00:16:35;93182.84;;;17.92;76.52
2214;BME280;1113;42.018;23.986;2022-07-23T00:19:02;93176.00;;;18.03;75.92
2214;BME280;1113;42.018;23.986;2022-07-23T00:21:29;93175.22;;;18.18;77.09
2214;BME280;1113;42.018;23.986;2022-07-23T00:23:56;93179.28;;;18.16;76.36
2214;BME280;1113;42.018;23.986;2022-07-23T00:26:24;93170.47;;;17.89;77.87
2214;BME280;1113;42.018;23.986;2022-07-23T00:28:51;93178.75;;;17.75;79.02
2214;BME280;1113;42.018;23.986;2022-07-23T00:31:18;93178.44;;;17.64;79.06
2214;BME280;1113;42.018;23.986;2022-07-23T00:33:45;93178.75;;;17.63;79.87
2214;BME280;1113;42.018;23.986;2022-07-23T00:36:11;93176.25;;;17.51;80.78
2214;BME280;1113;42.018;23.986;2022-07-23T00:38:38;93181.97;;;17.41;81.37
2214;BME280;1113;42.018;23.986;2022-07-23T00:41:05;93176.75;;;17.41;80.49
2214;BME280;1113;42.018;23.986;2022-07-23T00:43:33;93181.78;;;17.49;79.21
2214;BME280;1113;42.018;23.986;2022-07-23T00:46:01;93169.84;;;17.48;79.75
2214;BME280;1113;42.018;23.986;2022-07-23T00:48:27;93170.75;;;17.40;81.25
2214;BME280;1113;42.018;23.986;2022-07-23T00:50:54;93163.59;;;17.21;82.98
2214;BME280;1113;42.018;23.986;2022-07-23T00:53:21;93165.78;;;17.19;82.13
2214;BME280;1113;42.018;23.986;2022-07-23T00:55:49;93168.56;;;17.26;81.13
2214;BME280;1113;42.018;23.986;2022-07-23T00:58:16;93161.91;;;17.29;81.12
2214;BME280;1113;42.018;23.986;2022-07-23T01:00:44;93167.06;;;17.13;83.30
2214;BME280;1113;42.018;23.986;2022-07-23T01:03:11;93164.44;;;16.97;84.26
2214;BME280;1113;42.018;23.986;2022-07-23T01:05:38;93166.09;;;16.90;85.72
2214;BME280;1113;42.018;23.986;2022-07-23T01:08:06;93173.22;;;16.77;86.59
2214;BME280;1113;42.018;23.986;2022-07-23T01:10:33;93171.19;;;16.70;87.07
2214;BME280;1113;42.018;23.986;2022-07-23T01:13:01;93166.69;;;16.59;87.82
2214;BME280;1113;42.018;23.986;2022-07-23T01:15:29;93168.88;;;16.57;88.81
2214;BME280;1113;42.018;23.986;2022-07-23T01:17:57;93163.56;;;16.53;88.29
2214;BME280;1113;42.018;23.986;2022-07-23T01:20:24;93164.94;;;16.63;86.72
2214;BME280;1113;42.018;23.986;2022-07-23T01:22:52;93161.59;;;16.75;85.60
2214;BME280;1113;42.018;23.986;2022-07-23T01:25:19;93168.19;;;16.84;83.46
2214;BME280;1113;42.018;23.986;2022-07-23T01:27:46;93161.69;;;16.78;85.85
2214;BME280;1113;42.018;23.986;2022-07-23T01:30:14;93157.84;;;16.48;88.77
2214;BME280;1113;42.018;23.986;2022-07-23T01:32:41;93159.50;;;16.28;90.91
2214;BME280;1113;42.018;23.986;2022-07-23T01:35:08;93157.56;;;16.25;91.50
2214;BME280;1113;42.018;23.986;2022-07-23T01:37:35;93159.81;;;16.38;88.83
2214;BME280;1113;42.018;23.986;2022-07-23T01:40:05;93155.13;;;16.44;89.53
2214;BME280;1113;42.018;23.986;2022-07-23T01:42:32;93164.66;;;16.52;88.21
2214;BME280;1113;42.018;23.986;2022-07-23T01:44:59;93162.47;;;16.54;87.05
2214;BME280;1113;42.018;23.986;2022-07-23T01:47:26;93165.22;;;16.46;88.17
2214;BME280;1113;42.018;23.986;2022-07-23T01:49:53;93161.75;;;16.41;87.55
2214;BME280;1113;42.018;23.986;2022-07-23T01:52:19;93167.50;;;16.47;86.72
2214;BME280;1113;42.018;23.986;2022-07-23T01:54:46;93163.59;;;16.41;88.35
2214;BME280;1113;42.018;23.986;2022-07-23T01:57:15;93155.28;;;16.23;89.49
2214;BME280;1113;42.018;23.986;2022-07-23T01:59:41;93165.91;;;16.30;87.34
2214;BME280;1113;42.018;23.986;2022-07-23T02:02:08;93157.66;;;16.28;88.51
2214;BME280;1113;42.018;23.986;2022-07-23T02:04:35;93163.53;;;16.25;89.04
2214;BME280;1113;42.018;23.986;2022-07-23T02:07:03;93172.75;;;16.10;89.82
2214;BME280;1113;42.018;23.986;2022-07-23T02:09:30;93173.19;;;16.00;90.46
2214;BME280;1113;42.018;23.986;2022-07-23T02:11:57;93165.38;;;16.00;90.99
2214;BME280;1113;42.018;23.986;2022-07-23T02:14:26;93168.44;;;15.78;94.11
2214;BME280;1113;42.018;23.986;2022-07-23T02:16:52;93168.53;;;15.82;92.80
2214;BME280;1113;42.018;23.986;2022-07-23T02:19:19;93171.38;;;15.76;94.07
2214;BME280;1113;42.018;23.986;2022-07-23T02:21:46;93168.81;;;15.56;97.69
2214;BME280;1113;42.018;23.986;2022-07-23T02:24:13;93161.31;;;15.42;98.29
2214;BME280;1113;42.018;23.986;2022-07-23T02:26:40;93169.44;;;15.40;98.45
2214;BME280;1113;42.018;23.986;2022-07-23T02:29:07;93163.91;;;15.54;95.27
2214;BME280;1113;42.018;23.986;2022-07-23T02:31:35;93170.38;;;15.69;94.21
2214;BME280;1113;42.018;23.986;2022-07-23T02:34:02;93171.69;;;15.75;93.51
2214;BME280;1113;42.018;23.986;2022-07-23T02:36:29;93173.97;;;15.76;93.83
2214;BME280;1113;42.018;23.986;2022-07-23T02:38:57;93171.78;;;15.66;95.73
2214;BME280;1113;42.018;23.986;2022-07-23T02:41:23;93179.59;;;15.66;93.71
2214;BME280;1113;42.018;23.986;2022-07-23T02:43:50;93182.09;;;15.75;92.61
2214;BME280;1113;42.018;23.986;2022-07-23T02:46:17;93171.59;;;15.71;94.69
2214;BME280;1113;42.018;23.986;2022-07-23T02:48:45;93177.97;;;15.74;92.99
2214;BME280;1113;42.018;23.986;2022-07-23T02:51:12;93179.94;;;15.65;94.35
2214;BME280;1113;42.018;23.986;2022-07-23T02:53:39;93179.16;;;15.64;93.91
2214;BME280;1113;42.018;23.986;2022-07-23T02:56:06;93190.78;;;15.79;93.54
2214;BME280;1113;42.018;23.986;2022-07-23T02:58:32;93185.47;;;15.75;94.00
2214;BME280;1113;42.018;23.986;2022-07-23T03:00:59;93181.66;;;15.73;93.56
2214;BME280;1113;42.018;23.986;2022-07-23T03:03:26;93188.31;;;15.50;96.96
2214;BME280;1113;42.018;23.986;2022-07-23T03:05:54;93205.75;;;15.49;95.61
2214;BME280;1113;42.018;23.986;2022-07-23T03:08:21;93203.53;;;15.60;93.09
2214;BME280;1113;42.018;23.986;2022-07-23T03:10:48;93203.84;;;15.58;95.28
2214;BME280;1113;42.018;23.986;2022-07-23T03:13:15;93198.78;;;15.29;98.49
2214;BME280;1113;42.018;23.986;2022-07-23T03:15:42;93205.47;;;15.18;100.00
2214;BME280;1113;42.018;23.986;2022-07-23T03:18:08;93197.50;;;15.02;100.00
2214;BME280;1113;42.018;23.986;2022-07-23T03:20:35;93205.50;;;14.97;100.00
2214;BME280;1113;42.018;23.986;2022-07-23T03:23:03;93207.78;;;14.98;100.00
2214;BME280;1113;42.018;23.986;2022-07-23T03:25:30;93206.31;;;14.89;100.00
2214;BME280;1113;42.018;23.986;2022-07-23T03:27:57;93206.44;;;14.92;100.00
2214;BME280;1113;42.018;23.986;2022-07-23T03:30:24;93207.72;;;14.86;100.00
2214;BME280;1113;42.018;23.986;2022-07-23T03:32:51;93216.53;;;14.94;100.00
2214;BME280;1113;42.018;23.986;2022-07-23T03:35:17;93215.19;;;15.08;100.00
2214;BME280;1113;42.018;23.986;2022-07-23T03:37:44;93214.16;;;15.22;99.87
2214;BME280;1113;42.018;23.986;2022-07-23T03:40:13;93210.56;;;15.14;100.00
2214;BME280;1113;42.018;23.986;2022-07-23T03:42:39;93210.81;;;15.21;100.00
2214;BME280;1113;42.018;23.986;2022-07-23T03:45:08;93208.56;;;15.32;98.24
2214;BME280;1113;42.018;23.986;2022-07-23T03:47:35;93216.50;;;15.47;97.49
2214;BME280;1113;42.018;23.986;2022-07-23T03:50:02;93221.81;;;15.51;98.45
2214;BME280;1113;42.018;23.986;2022-07-23T03:52:29;93216.53;;;15.60;99.28
2214;BME280;1113;42.018;23.986;2022-07-23T03:54:56;93226.34;;;15.63;99.14
2214;BME280;1113;42.018;23.986;2022-07-23T03:57:24;93216.59;;;15.72;96.81
2214;BME280;1113;42.018;23.986;2022-07-23T03:59:51;93222.78;;;15.80;95.40
2214;BME280;1113;42.018;23.986;2022-07-23T04:02:18;93221.59;;;15.89;97.65
2214;BME280;1113;42.018;23.986;2022-07-23T04:04:45;93219.97;;;15.85;99.04
2214;BME280;1113;42.018;23.986;2022-07-23T04:07:12;93224.53;;;15.88;98.99
2214;BME280;1113;42.018;23.986;2022-07-23T04:09:39;93217.34;;;15.85;100.00
2214;BME280;1113;42.018;23.986;2022-07-23T04:12:07;93219.75;;;15.90;99.41
2214;BME280;1113;42.018;23.986;2022-07-23T04:14:36;93224.09;;;15.98;98.51
2214;BME280;1113;42.018;23.986;2022-07-23T04:17:02;93225.50;;;16.07;96.79
2214;BME280;1113;42.018;23.986;2022-07-23T04:19:29;93218.91;;;16.22;95.11
2214;BME280;1113;42.018;23.986;2022-07-23T04:21:56;93218.34;;;16.29;96.21
2214;BME280;1113;42.018;23.986;2022-07-23T04:24:24;93227.56;;;16.38;95.40
2214;BME280;1113;42.018;23.986;2022-07-23T04:26:50;93226.25;;;16.45;95.27
2214;BME280;1113;42.018;23.986;2022-07-23T04:29:18;93222.88;;;16.56;92.65
2214;BME280;1113;42.018;23.986;2022-07-23T04:31:46;93226.16;;;16.65;92.27
2214;BME280;1113;42.018;23.986;2022-07-23T04:34:13;93228.97;;;16.73;92.56
2214;BME280;1113;42.018;23.986;2022-07-23T04:36:40;93227.22;;;16.77;93.91
2214;BME280;1113;42.018;23.986;2022-07-23T04:39:07;93231.09;;;16.83;93.29
2214;BME280;1113;42.018;23.986;2022-07-23T04:41:34;93228.94;;;16.85;93.00
2214;BME280;1113;42.018;23.986;2022-07-23T04:44:01;93232.28;;;16.85;94.42
2214;BME280;1113;42.018;23.986;2022-07-23T04:46:28;93226.19;;;16.93;93.72
2214;BME280;1113;42.018;23.986;2022-07-23T04:48:56;93234.75;;;16.94;93.83
2214;BME280;1113;42.018;23.986;2022-07-23T04:51:23;93232.34;;;17.01;92.38
2214;BME280;1113;42.018;23.986;2022-07-23T04:53:50;93230.59;;;17.05;92.83
2214;BME280;1113;42.018;23.986;2022-07-23T04:56:17;93222.50;;;17.22;91.11
2214;BME280;1113;42.018;23.986;2022-07-23T04:58:43;93223.03;;;17.28;90.48
2214;BME280;1113;42.018;23.986;2022-07-23T05:01:10;93224.28;;;17.34;90.09
2214;BME280;1113;42.018;23.986;2022-07-23T05:03:37;93221.94;;;17.45;89.98
2214;BME280;1113;42.018;23.986;2022-07-23T05:06:05;93225.69;;;17.59;88.27
2214;BME280;1113;42.018;23.986;2022-07-23T05:08:32;93224.22;;;17.74;86.87
2214;BME280;1113;42.018;23.986;2022-07-23T05:10:59;93227.09;;;17.85;86.92
2214;BME280;1113;42.018;23.986;2022-07-23T05:13:26;93220.19;;;17.92;86.69
2214;BME280;1113;42.018;23.986;2022-07-23T05:15:53;93231.28;;;18.05;86.40
2214;BME280;1113;42.018;23.986;2022-07-23T05:18:19;93227.41;;;18.15;86.20
2214;BME280;1113;42.018;23.986;2022-07-23T05:20:46;93223.88;;;18.23;86.48
2214;BME280;1113;42.018;23.986;2022-07-23T05:23:15;93227.50;;;18.34;84.50
2214;BME280;1113;42.018;23.986;2022-07-23T05:25:41;93217.53;;;18.40;82.86
2214;BME280;1113;42.018;23.986;2022-07-23T05:28:08;93224.34;;;18.44;82.12
2214;BME280;1113;42.018;23.986;2022-07-23T05:30:35;93226.44;;;18.54;83.11
2214;BME280;1113;42.018;23.986;2022-07-23T05:33:02;93220.69;;;18.65;83.25
2214;BME280;1113;42.018;23.986;2022-07-23T05:35:29;93216.88;;;18.78;82.04
2214;BME280;1113;42.018;23.986;2022-07-23T05:37:56;93217.91;;;18.92;79.51
2214;BME280;1113;42.018;23.986;2022-07-23T05:40:24;93211.16;;;19.11;78.41
2214;BME280;1113;42.018;23.986;2022-07-23T05:42:51;93213.56;;;19.19;79.78
2214;BME280;1113;42.018;23.986;2022-07-23T05:45:18;93214.25;;;19.36;78.42
2214;BME280;1113;42.018;23.986;2022-07-23T05:47:46;93208.09;;;19.47;78.11
2214;BME280;1113;42.018;23.986;2022-07-23T05:50:14;93214.78;;;19.64;75.93
2214;BME280;1113;42.018;23.986;2022-07-23T05:52:42;93219.03;;;19.72;76.73
2214;BME280;1113;42.018;23.986;2022-07-23T05:55:10;93212.47;;;19.82;77.83
2214;BME280;1113;42.018;23.986;2022-07-23T05:57:39;93223.19;;;19.96;76.43
2214;BME280;1113;42.018;23.986;2022-07-23T06:00:08;93217.41;;;20.10;74.79
2214;BME280;1113;42.018;23.986;2022-07-23T06:02:35;93212.78;;;20.26;74.57
2214;BME280;1113;42.018;23.986;2022-07-23T06:05:04;93212.28;;;20.40;74.79
2214;BME280;1113;42.018;23.986;2022-07-23T06:07:36;93212.06;;;20.52;73.38
2214;BME280;1113;42.018;23.986;2022-07-23T06:10:03;93216.00;;;20.65;72.16
2214;BME280;1113;42.018;23.986;2022-07-23T06:12:30;93213.13;;;20.77;70.52
2214;BME280;1113;42.018;23.986;2022-07-23T06:14:58;93206.97;;;20.93;69.29
2214;BME280;1113;42.018;23.986;2022-07-23T06:17:25;93207.13;;;21.07;68.80
2214;BME280;1113;42.018;23.986;2022-07-23T06:19:52;93209.59;;;21.23;69.54
2214;BME280;1113;42.018;23.986;2022-07-23T06:22:19;93211.25;;;21.34;69.01
2214;BME280;1113;42.018;23.986;2022-07-23T06:24:46;93209.13;;;21.47;69.45
2214;BME280;1113;42.018;23.986;2022-07-23T06:27:13;93208.47;;;21.57;67.76
2214;BME280;1113;42.018;23.986;2022-07-23T06:29:40;93203.31;;;21.68;68.34
2214;BME280;1113;42.018;23.986;2022-07-23T06:32:08;93198.91;;;21.79;66.89
2214;BME280;1113;42.018;23.986;2022-07-23T06:34:35;93203.16;;;21.91;66.93
2214;BME280;1113;42.018;23.986;2022-07-23T06:37:02;93204.78;;;22.06;66.86
2214;BME280;1113;42.018;23.986;2022-07-23T06:39:29;93206.06;;;22.26;66.40
2214;BME280;1113;42.018;23.986;2022-07-23T06:41:56;93199.44;;;22.43;64.44
2214;BME280;1113;42.018;23.986;2022-07-23T06:44:23;93197.25;;;22.59;64.46
2214;BME280;1113;42.018;23.986;2022-07-23T06:46:50;93199.59;;;22.75;63.85
2214;BME280;1113;42.018;23.986;2022-07-23T06:49:18;93190.69;;;22.90;63.41
2214;BME280;1113;42.018;23.986;2022-07-23T06:51:45;93185.09;;;23.03;63.30
2214;BME280;1113;42.018;23.986;2022-07-23T06:54:12;93180.63;;;23.14;61.88
2214;BME280;1113;42.018;23.986;2022-07-23T06:56:39;93187.06;;;23.30;62.27
2214;BME280;1113;42.018;23.986;2022-07-23T06:59:06;93182.59;;;23.42;59.99
2214;BME280;1113;42.018;23.986;2022-07-23T07:01:33;93182.59;;;23.52;61.38
2214;BME280;1113;42.018;23.986;2022-07-23T07:04:00;93185.28;;;23.70;60.05
2214;BME280;1113;42.018;23.986;2022-07-23T07:06:28;93183.78;;;23.90;60.75
2214;BME280;1113;42.018;23.986;2022-07-23T07:08:55;93178.16;;;24.06;59.71
2214;BME280;1113;42.018;23.986;2022-07-23T07:11:22;93182.66;;;24.23;58.94
2214;BME280;1113;42.018;23.986;2022-07-23T07:13:50;93175.53;;;24.45;58.48
2214;BME280;1113;42.018;23.986;2022-07-23T07:16:17;93173.97;;;24.59;56.47
2214;BME280;1113;42.018;23.986;2022-07-23T07:18:44;93176.22;;;24.71;55.78
2214;BME280;1113;42.018;23.986;2022-07-23T07:21:11;93173.50;;;24.85;56.81
2214;BME280;1113;42.018;23.986;2022-07-23T07:23:39;93177.25;;;24.91;55.00
2214;BME280;1113;42.018;23.986;2022-07-23T07:26:06;93169.69;;;24.97;55.29
2214;BME280;1113;42.018;23.986;2022-07-23T07:28:33;93176.09;;;25.13;54.70
2214;BME280;1113;42.018;23.986;2022-07-23T07:31:00;93168.41;;;25.37;55.33
2214;BME280;1113;42.018;23.986;2022-07-23T07:33:26;93166.06;;;25.53;52.51
2214;BME280;1113;42.018;23.986;2022-07-23T07:35:54;93164.09;;;25.71;53.14
2214;BME280;1113;42.018;23.986;2022-07-23T07:38:21;93156.47;;;25.81;51.52
2214;BME280;1113;42.018;23.986;2022-07-23T07:40:49;93152.97;;;25.91;51.51
2214;BME280;1113;42.018;23.986;2022-07-23T07:43:16;93159.69;;;26.06;51.21
2214;BME280;1113;42.018;23.986;2022-07-23T07:45:42;93152.31;;;26.24;49.35
2214;BME280;1113;42.018;23.986;2022-07-23T07:48:09;93152.91;;;26.46;49.21
2214;BME280;1113;42.018;23.986;2022-07-23T07:50:36;93143.31;;;26.59;47.52
2214;BME280;1113;42.018;23.986;2022-07-23T07:53:03;93153.41;;;26.71;49.10
2214;BME280;1113;42.018;23.986;2022-07-23T07:55:30;93144.13;;;26.87;49.89
2214;BME280;1113;42.018;23.986;2022-07-23T07:57:58;93141.34;;;27.01;49.03
2214;BME280;1113;42.018;23.986;2022-07-23T08:00:25;93138.97;;;27.10;47.72
2214;BME280;1113;42.018;23.986;2022-07-23T08:02:53;93137.69;;;27.22;48.20
2214;BME280;1113;42.018;23.986;2022-07-23T08:05:21;93131.13;;;27.30;46.18
2214;BME280;1113;42.018;23.986;2022-07-23T08:07:48;93132.19;;;27.36;47.52
2214;BME280;1113;42.018;23.986;2022-07-23T08:10:15;93126.69;;;27.50;48.67
2214;BME280;1113;42.018;23.986;2022-07-23T08:12:45;93120.75;;;27.70;46.80
2214;BME280;1113;42.018;23.986;2022-07-23T08:15:15;93124.16;;;27.93;47.84
2214;BME280;1113;42.018;23.986;2022-07-23T08:17:43;93120.88;;;28.09;46.56
2214;BME280;1113;42.018;23.986;2022-07-23T08:20:12;93111.56;;;28.24;45.29
2214;BME280;1113;42.018;23.986;2022-07-23T08:22:49;93116.94;;;28.41;43.82
2214;BME280;1113;42.018;23.986;2022-07-23T08:25:19;93111.09;;;28.49;42.38
2214;BME280;1113;42.018;23.986;2022-07-23T08:27:46;93106.38;;;28.57;42.83
2214;BME280;1113;42.018;23.986;2022-07-23T08:30:16;93104.66;;;28.70;42.86
2214;BME280;1113;42.018;23.986;2022-07-23T08:32:54;93106.16;;;28.91;41.83
2214;BME280;1113;42.018;23.986;2022-07-23T08:35:23;93101.28;;;29.06;42.29
2214;BME280;1113;42.018;23.986;2022-07-23T08:37:50;93101.59;;;29.28;42.55
2214;BME280;1113;42.018;23.986;2022-07-23T08:40:17;93104.72;;;29.59;37.61
2214;BME280;1113;42.018;23.986;2022-07-23T08:42:47;93089.78;;;29.81;34.60
2214;BME280;1113;42.018;23.986;2022-07-23T08:45:18;93094.41;;;29.93;36.70
2214;BME280;1113;42.018;23.986;2022-07-23T08:47:48;93102.09;;;30.07;36.36
2214;BME280;1113;42.018;23.986;2022-07-23T08:50:16;93099.75;;;30.26;34.49
2214;BME280;1113;42.018;23.986;2022-07-23T08:52:43;93100.66;;;30.48;34.08
2214;BME280;1113;42.018;23.986;2022-07-23T08:55:10;93098.41;;;30.63;36.12
2214;BME280;1113;42.018;23.986;2022-07-23T08:57:36;93091.94;;;30.76;36.84
2214;BME280;1113;42.018;23.986;2022-07-23T09:00:05;93097.19;;;30.93;35.36
2214;BME280;1113;42.018;23.986;2022-07-23T09:02:39;93089.09;;;30.96;34.38
2214;BME280;1113;42.018;23.986;2022-07-23T09:05:07;93099.69;;;31.13;37.14
2214;BME280;1113;42.018;23.986;2022-07-23T09:07:36;93102.41;;;31.25;37.04
2214;BME280;1113;42.018;23.986;2022-07-23T09:10:08;93097.19;;;31.34;36.09
2214;BME280;1113;42.018;23.986;2022-07-23T09:12:35;93084.69;;;31.44;35.00
2214;BME280;1113;42.018;23.986;2022-07-23T09:15:06;93085.94;;;31.52;34.76
2214;BME280;1113;42.018;23.986;2022-07-23T09:17:40;93082.53;;;31.52;33.83
2214;BME280;1113;42.018;23.986;2022-07-23T09:20:08;93083.81;;;31.60;35.38
2214;BME280;1113;42.018;23.986;2022-07-23T09:22:36;93080.41;;;31.72;35.02
2214;BME280;1113;42.018;23.986;2022-07-23T09:25:04;93084.56;;;31.86;32.30
2214;BME280;1113;42.018;23.986;2022-07-23T09:27:46;93077.38;;;31.95;32.88
2214;BME280;1113;42.018;23.986;2022-07-23T09:30:14;93075.84;;;32.07;32.03
2214;BME280;1113;42.018;23.986;2022-07-23T09:32:42;93063.03;;;32.02;31.54
2214;BME280;1113;42.018;23.986;2022-07-23T09:35:09;93064.28;;;32.10;31.53
2214;BME280;1113;42.018;23.986;2022-07-23T09:37:36;93063.75;;;32.15;31.88
2214;BME280;1113;42.018;23.986;2022-07-23T09:40:04;93060.06;;;32.22;31.93
2214;BME280;1113;42.018;23.986;2022-07-23T09:42:32;93060.81;;;32.35;32.98
2214;BME280;1113;42.018;23.986;2022-07-23T09:44:59;93060.56;;;32.42;31.82
2214;BME280;1113;42.018;23.986;2022-07-23T09:47:28;93065.56;;;32.53;30.63
2214;BME280;1113;42.018;23.986;2022-07-23T09:50:01;93058.03;;;32.60;29.90
2214;BME280;1113;42.018;23.986;2022-07-23T09:52:32;93051.97;;;32.69;29.61
2214;BME280;1113;42.018;23.986;2022-07-23T09:54:59;93060.19;;;32.75;29.99
2214;BME280;1113;42.018;23.986;2022-07-23T09:57:27;93062.53;;;32.85;30.05
2214;BME280;1113;42.018;23.986;2022-07-23T09:59:57;93051.44;;;32.96;30.50
2214;BME280;1113;42.018;23.986;2022-07-23T10:02:25;93061.41;;;33.05;30.12
2214;BME280;1113;42.018;23.986;2022-07-23T10:04:54;93060.81;;;33.01;29.95
2214;BME280;1113;42.018;23.986;2022-07-23T10:07:24;93057.38;;;33.00;29.14
2214;BME280;1113;42.018;23.986;2022-07-23T10:09:52;93052.34;;;33.02;29.29
2214;BME280;1113;42.018;23.986;2022-07-23T10:12:20;93050.63;;;33.17;30.23
2214;BME280;1113;42.018;23.986;2022-07-23T10:14:56;93061.00;;;33.37;30.88
2214;BME280;1113;42.018;23.986;2022-07-23T10:17:22;93054.94;;;33.46;31.20
2214;BME280;1113;42.018;23.986;2022-07-23T10:19:49;93049.16;;;33.56;31.03
2214;BME280;1113;42.018;23.986;2022-07-23T10:22:21;93049.78;;;33.70;30.02
2214;BME280;1113;42.018;23.986;2022-07-23T10:25:10;93041.22;;;33.93;30.15
2214;BME280;1113;42.018;23.986;2022-07-23T10:27:57;93038.25;;;34.00;29.20
2214;BME280;1113;42.018;23.986;2022-07-23T10:30:30;93033.78;;;33.97;28.35
2214;BME280;1113;42.018;23.986;2022-07-23T10:33:09;93033.03;;;33.88;29.22
2214;BME280;1113;42.018;23.986;2022-07-23T10:35:46;93025.88;;;33.94;29.84
2214;BME280;1113;42.018;23.986;2022-07-23T10:38:19;93018.94;;;33.56;27.62
2214;BME280;1113;42.018;23.986;2022-07-23T10:40:55;93013.00;;;33.61;26.44
2214;BME280;1113;42.018;23.986;2022-07-23T10:43:23;93022.25;;;33.78;27.56
2214;BME280;1113;42.018;23.986;2022-07-23T10:45:50;93021.13;;;33.89;26.85
2214;BME280;1113;42.018;23.986;2022-07-23T10:48:19;93019.94;;;33.99;28.34
2214;BME280;1113;42.018;23.986;2022-07-23T10:51:08;93021.88;;;34.07;27.45
2214;BME280;1113;42.018;23.986;2022-07-23T10:53:59;93011.88;;;34.17;26.72
2214;BME280;1113;42.018;23.986;2022-07-23T10:57:06;93002.94;;;34.20;27.79
2214;BME280;1113;42.018;23.986;2022-07-23T11:00:14;93017.09;;;34.30;26.21
2214;BME280;1113;42.018;23.986;2022-07-23T11:02:43;93005.03;;;34.07;25.63
2214;BME280;1113;42.018;23.986;2022-07-23T11:05:12;93001.16;;;34.08;27.01
2214;BME280;1113;42.018;23.986;2022-07-23T11:10:55;93004.69;;;33.77;25.42
2214;BME280;1113;42.018;23.986;2022-07-23T11:13:32;92998.34;;;34.02;26.41
2214;BME280;1113;42.018;23.986;2022-07-23T11:19:07;92998.50;;;34.44;24.26
2214;BME280;1113;42.018;23.986;2022-07-23T11:21:45;93001.00;;;34.57;24.99
2214;BME280;1113;42.018;23.986;2022-07-23T11:24:15;93001.44;;;34.65;24.08
2214;BME280;1113;42.018;23.986;2022-07-23T11:26:59;93003.03;;;34.71;24.92
2214;BME280;1113;42.018;23.986;2022-07-23T11:29:47;92996.25;;;34.43;23.46
2214;BME280;1113;42.018;23.986;2022-07-23T11:32:38;92991.66;;;34.34;25.92
2214;BME280;1113;42.018;23.986;2022-07-23T11:35:23;93002.66;;;34.55;25.58
2214;BME280;1113;42.018;23.986;2022-07-23T11:37:51;93002.13;;;34.74;25.64
2214;BME280;1113;42.018;23.986;2022-07-23T11:40:24;92997.22;;;34.73;23.32
2214;BME280;1113;42.018;23.986;2022-07-23T11:42:55;92997.22;;;34.73;24.91
2214;BME280;1113;42.018;23.986;2022-07-23T11:45:24;92991.84;;;34.73;22.88
2214;BME280;1113;42.018;23.986;2022-07-23T11:47:51;92985.72;;;34.81;25.78
2214;BME280;1113;42.018;23.986;2022-07-23T11:50:18;92987.97;;;34.92;23.42
2214;BME280;1113;42.018;23.986;2022-07-23T11:52:45;92984.03;;;35.02;24.65
2214;BME280;1113;42.018;23.986;2022-07-23T11:55:12;92984.78;;;35.03;25.15
2214;BME280;1113;42.018;23.986;2022-07-23T11:57:42;92980.75;;;35.07;24.11
2214;BME280;1113;42.018;23.986;2022-07-23T12:00:12;92980.06;;;35.22;22.86
2214;BME280;1113;42.018;23.986;2022-07-23T12:02:43;92976.19;;;35.23;23.32
2214;BME280;1113;42.018;23.986;2022-07-23T12:05:15;92977.69;;;35.24;24.97
2214;BME280;1113;42.018;23.986;2022-07-23T12:07:43;92981.97;;;35.30;25.28
2214;BME280;1113;42.018;23.986;2022-07-23T12:10:17;92970.81;;;35.23;23.54
2214;BME280;1113;42.018;23.986;2022-07-23T12:12:46;92975.53;;;35.04;22.50
2214;BME280;1113;42.018;23.986;2022-07-23T12:15:15;92976.13;;;35.08;25.03
2214;BME280;1113;42.018;23.986;2022-07-23T12:17:45;92973.78;;;35.25;26.00
2214;BME280;1113;42.018;23.986;2022-07-23T12:20:14;92967.06;;;35.38;23.94
2214;BME280;1113;42.018;23.986;2022-07-23T12:22:43;92965.50;;;35.47;23.41
2214;BME280;1113;42.018;23.986;2022-07-23T12:25:11;92960.69;;;35.51;23.61
2214;BME280;1113;42.018;23.986;2022-07-23T12:27:39;92955.28;;;35.60;22.98
2214;BME280;1113;42.018;23.986;2022-07-23T12:30:16;92958.97;;;35.62;23.93
2214;BME280;1113;42.018;23.986;2022-07-23T12:32:46;92946.28;;;35.63;22.95
2214;BME280;1113;42.018;23.986;2022-07-23T12:35:14;92954.47;;;35.68;23.78
2214;BME280;1113;42.018;23.986;2022-07-23T12:37:42;92947.81;;;35.79;22.91
2214;BME280;1113;42.018;23.986;2022-07-23T12:40:21;92940.75;;;35.66;22.82
2214;BME280;1113;42.018;23.986;2022-07-23T12:42:50;92941.47;;;35.67;23.40
2214;BME280;1113;42.018;23.986;2022-07-23T12:45:18;92933.94;;;35.56;20.40
2214;BME280;1113;42.018;23.986;2022-07-23T12:48:01;92933.66;;;35.54;22.34
2214;BME280;1113;42.018;23.986;2022-07-23T12:50:40;92940.00;;;35.66;22.53
2214;BME280;1113;42.018;23.986;2022-07-23T12:53:10;92932.78;;;35.72;23.48
2214;BME280;1113;42.018;23.986;2022-07-23T12:55:39;92931.59;;;35.73;23.50
2214;BME280;1113;42.018;23.986;2022-07-23T12:58:08;92943.34;;;35.76;22.78
2214;BME280;1113;42.018;23.986;2022-07-23T13:00:59;92932.56;;;35.85;22.41
2214;BME280;1113;42.018;23.986;2022-07-23T13:03:30;92927.66;;;35.83;22.39
2214;BME280;1113;42.018;23.986;2022-07-23T13:05:58;92933.53;;;35.96;23.89
2214;BME280;1113;42.018;23.986;2022-07-23T13:08:27;92921.03;;;36.23;21.24
2214;BME280;1113;42.018;23.986;2022-07-23T13:10:54;92929.75;;;36.32;22.67
2214;BME280;1113;42.018;23.986;2022-07-23T13:13:23;92924.53;;;36.14;22.65
2214;BME280;1113;42.018;23.986;2022-07-23T13:15:52;92922.41;;;36.18;23.44
2214;BME280;1113;42.018;23.986;2022-07-23T13:18:24;92929.75;;;36.18;22.74
2214;BME280;1113;42.018;23.986;2022-07-23T13:20:53;92918.69;;;36.16;23.24
2214;BME280;1113;42.018;23.986;2022-07-23T13:23:20;92925.66;;;36.22;22.35
2214;BME280;1113;42.018;23.986;2022-07-23T13:25:48;92918.53;;;36.34;21.58